sensor_id;sensor_type;location;lat;lon;timestamp;P1;durP1;ratioP1;P2;durP2;ratioP2
8293;SDS011;4185;41.506;24.938;2023-12-20T00:00:55;13.07;;;7.80;;
8293;SDS011;4185;41.506;24.938;2023-12-20T00:03:24;8.77;;;5.97;;
8293;SDS011;4185;41.506;24.938;2023-12-20T00:05:49;7.97;;;5.27;;
8293;SDS011;4185;41.506;24.938;2023-12-20T00:08:16;8.10;;;6.10;;
8293;SDS011;4185;41.506;24.938;2023-12-20T00:10:44;6.70;;;4.97;;
8293;SDS011;4185;41.506;24.938;2023-12-20T00:13:10;7.13;;;4.57;;
8293;SDS011;4185;41.506;24.938;2023-12-20T00:15:37;4.87;;;4.00;;
8293;SDS011;4185;41.506;24.938;2023-12-20T00:18:04;8.33;;;5.30;;
8293;SDS011;4185;41.506;24.938;2023-12-20T00:20:32;7.90;;;6.53;;
8293;SDS011;4185;41.506;24.938;2023-12-20T00:22:59;8.03;;;5.30;;
8293;SDS011;4185;41.506;24.938;2023-12-20T00:25:26;7.30;;;5.57;;
8293;SDS011;4185;41.506;24.938;2023-12-20T00:27:53;7.40;;;5.87;;
8293;SDS011;4185;41.506;24.938;2023-12-20T00:30:19;10.40;;;6.40;;
8293;SDS011;4185;41.506;24.938;2023-12-20T00:32:46;6.93;;;5.50;;
8293;SDS011;4185;41.506;24.938;2023-12-20T00:35:13;6.57;;;5.00;;
8293;SDS011;4185;41.506;24.938;2023-12-20T00:37:42;5.57;;;4.40;;
8293;SDS011;4185;41.506;24.938;2023-12-20T00:40:09;9.10;;;5.10;;
8293;SDS011;4185;41.506;24.938;2023-12-20T00:42:36;6.73;;;4.20;;
8293;SDS011;4185;41.506;24.938;2023-12-20T00:45:04;6.57;;;4.00;;
8293;SDS011;4185;41.506;24.938;2023-12-20T00:47:31;13.03;;;7.17;;
8293;SDS011;4185;41.506;24.938;2023-12-20T00:49:58;8.27;;;5.13;;
8293;SDS011;4185;41.506;24.938;2023-12-20T00:52:25;10.90;;;6.63;;
8293;SDS011;4185;41.506;24.938;2023-12-20T00:54:53;10.90;;;6.13;;
8293;SDS011;4185;41.506;24.938;2023-12-20T00:57:20;10.37;;;6.33;;
8293;SDS011;4185;41.506;24.938;2023-12-20T00:59:46;8.70;;;5.93;;
8293;SDS011;4185;41.506;24.938;2023-12-20T01:02:13;5.57;;;4.40;;
8293;SDS011;4185;41.506;24.938;2023-12-20T01:04:40;5.27;;;4.70;;
8293;SDS011;4185;41.506;24.938;2023-12-20T01:07:07;13.83;;;7.63;;
8293;SDS011;4185;41.506;24.938;2023-12-20T01:09:33;13.10;;;7.03;;
8293;SDS011;4185;41.506;24.938;2023-12-20T01:12:01;10.93;;;6.40;;
8293;SDS011;4185;41.506;24.938;2023-12-20T01:14:28;18.10;;;8.30;;
8293;SDS011;4185;41.506;24.938;2023-12-20T01:16:55;12.80;;;7.83;;
8293;SDS011;4185;41.506;24.938;2023-12-20T01:19:22;18.20;;;9.10;;
8293;SDS011;4185;41.506;24.938;2023-12-20T01:21:49;16.80;;;9.43;;
8293;SDS011;4185;41.506;24.938;2023-12-20T01:24:15;21.43;;;10.00;;
8293;SDS011;4185;41.506;24.938;2023-12-20T01:26:42;12.57;;;8.07;;
8293;SDS011;4185;41.506;24.938;2023-12-20T01:29:10;14.10;;;6.97;;
8293;SDS011;4185;41.506;24.938;2023-12-20T01:31:39;9.67;;;6.37;;
8293;SDS011;4185;41.506;24.938;2023-12-20T01:34:06;11.50;;;7.03;;
8293;SDS011;4185;41.506;24.938;2023-12-20T01:36:33;10.33;;;6.63;;
8293;SDS011;4185;41.506;24.938;2023-12-20T01:38:59;13.87;;;7.43;;
8293;SDS011;4185;41.506;24.938;2023-12-20T01:41:26;8.37;;;6.13;;
8293;SDS011;4185;41.506;24.938;2023-12-20T01:43:53;10.07;;;6.33;;
8293;SDS011;4185;41.506;24.938;2023-12-20T01:46:21;12.43;;;6.20;;
8293;SDS011;4185;41.506;24.938;2023-12-20T01:48:48;11.97;;;6.83;;
8293;SDS011;4185;41.506;24.938;2023-12-20T01:51:15;7.97;;;5.73;;
8293;SDS011;4185;41.506;24.938;2023-12-20T01:53:42;7.83;;;5.00;;
8293;SDS011;4185;41.506;24.938;2023-12-20T01:56:10;8.37;;;5.90;;
8293;SDS011;4185;41.506;24.938;2023-12-20T01:58:38;14.20;;;7.87;;
8293;SDS011;4185;41.506;24.938;2023-12-20T02:01:09;8.60;;;5.70;;
8293;SDS011;4185;41.506;24.938;2023-12-20T02:03:38;9.20;;;4.97;;
8293;SDS011;4185;41.506;24.938;2023-12-20T02:06:05;9.17;;;5.40;;
8293;SDS011;4185;41.506;24.938;2023-12-20T02:08:33;7.07;;;4.67;;
8293;SDS011;4185;41.506;24.938;2023-12-20T02:11:00;8.27;;;5.40;;
8293;SDS011;4185;41.506;24.938;2023-12-20T02:13:27;7.60;;;5.23;;
8293;SDS011;4185;41.506;24.938;2023-12-20T02:15:54;8.40;;;4.30;;
8293;SDS011;4185;41.506;24.938;2023-12-20T02:18:21;5.17;;;4.30;;
8293;SDS011;4185;41.506;24.938;2023-12-20T02:20:50;6.77;;;4.70;;
8293;SDS011;4185;41.506;24.938;2023-12-20T02:23:18;8.93;;;5.57;;
8293;SDS011;4185;41.506;24.938;2023-12-20T02:25:45;6.83;;;5.27;;
8293;SDS011;4185;41.506;24.938;2023-12-20T02:28:12;10.40;;;6.47;;
8293;SDS011;4185;41.506;24.938;2023-12-20T02:30:39;10.30;;;5.67;;
8293;SDS011;4185;41.506;24.938;2023-12-20T02:33:07;8.30;;;4.80;;
8293;SDS011;4185;41.506;24.938;2023-12-20T02:35:37;4.07;;;3.40;;
8293;SDS011;4185;41.506;24.938;2023-12-20T02:38:04;5.77;;;4.27;;
8293;SDS011;4185;41.506;24.938;2023-12-20T02:40:32;18.93;;;7.77;;
8293;SDS011;4185;41.506;24.938;2023-12-20T02:42:59;11.90;;;5.70;;
8293;SDS011;4185;41.506;24.938;2023-12-20T02:45:26;5.73;;;4.13;;
8293;SDS011;4185;41.506;24.938;2023-12-20T02:47:53;5.97;;;4.03;;
8293;SDS011;4185;41.506;24.938;2023-12-20T02:50:19;5.37;;;4.50;;
8293;SDS011;4185;41.506;24.938;2023-12-20T02:52:46;8.17;;;4.90;;
8293;SDS011;4185;41.506;24.938;2023-12-20T02:55:13;5.17;;;4.67;;
8293;SDS011;4185;41.506;24.938;2023-12-20T02:57:41;14.90;;;5.87;;
8293;SDS011;4185;41.506;24.938;2023-12-20T03:00:08;6.70;;;4.50;;
8293;SDS011;4185;41.506;24.938;2023-12-20T03:02:35;7.20;;;4.73;;
8293;SDS011;4185;41.506;24.938;2023-12-20T03:05:03;11.33;;;7.00;;
8293;SDS011;4185;41.506;24.938;2023-12-20T03:07:30;17.13;;;7.97;;
8293;SDS011;4185;41.506;24.938;2023-12-20T03:09:57;16.40;;;8.33;;
8293;SDS011;4185;41.506;24.938;2023-12-20T03:12:24;8.73;;;6.23;;
8293;SDS011;4185;41.506;24.938;2023-12-20T03:14:52;10.10;;;5.13;;
8293;SDS011;4185;41.506;24.938;2023-12-20T03:17:19;5.20;;;3.73;;
8293;SDS011;4185;41.506;24.938;2023-12-20T03:19:46;4.57;;;3.30;;
8293;SDS011;4185;41.506;24.938;2023-12-20T03:22:12;5.77;;;4.00;;
8293;SDS011;4185;41.506;24.938;2023-12-20T03:24:39;6.13;;;5.10;;
8293;SDS011;4185;41.506;24.938;2023-12-20T03:27:06;3.70;;;3.43;;
8293;SDS011;4185;41.506;24.938;2023-12-20T03:29:33;6.27;;;4.53;;
8293;SDS011;4185;41.506;24.938;2023-12-20T03:32:01;5.67;;;4.10;;
8293;SDS011;4185;41.506;24.938;2023-12-20T03:34:28;7.43;;;4.33;;
8293;SDS011;4185;41.506;24.938;2023-12-20T03:36:55;5.57;;;4.93;;
8293;SDS011;4185;41.506;24.938;2023-12-20T03:39:22;4.80;;;4.40;;
8293;SDS011;4185;41.506;24.938;2023-12-20T03:41:48;8.00;;;6.07;;
8293;SDS011;4185;41.506;24.938;2023-12-20T03:44:15;10.47;;;7.23;;
8293;SDS011;4185;41.506;24.938;2023-12-20T03:46:42;8.10;;;5.40;;
8293;SDS011;4185;41.506;24.938;2023-12-20T03:49:12;7.60;;;5.20;;
8293;SDS011;4185;41.506;24.938;2023-12-20T03:51:38;9.83;;;5.77;;
8293;SDS011;4185;41.506;24.938;2023-12-20T03:54:07;5.87;;;5.20;;
8293;SDS011;4185;41.506;24.938;2023-12-20T03:56:33;19.67;;;8.43;;
8293;SDS011;4185;41.506;24.938;2023-12-20T03:59:00;14.47;;;7.57;;
8293;SDS011;4185;41.506;24.938;2023-12-20T04:01:27;8.37;;;4.60;;
8293;SDS011;4185;41.506;24.938;2023-12-20T04:03:54;6.97;;;4.87;;
8293;SDS011;4185;41.506;24.938;2023-12-20T04:06:22;8.87;;;5.70;;
8293;SDS011;4185;41.506;24.938;2023-12-20T04:08:48;6.83;;;4.73;;
8293;SDS011;4185;41.506;24.938;2023-12-20T04:11:15;7.43;;;5.40;;
8293;SDS011;4185;41.506;24.938;2023-12-20T04:13:42;31.97;;;15.63;;
8293;SDS011;4185;41.506;24.938;2023-12-20T04:16:09;10.53;;;5.97;;
8293;SDS011;4185;41.506;24.938;2023-12-20T04:18:35;8.23;;;6.30;;
8293;SDS011;4185;41.506;24.938;2023-12-20T04:21:02;13.63;;;6.90;;
8293;SDS011;4185;41.506;24.938;2023-12-20T04:23:31;16.07;;;8.77;;
8293;SDS011;4185;41.506;24.938;2023-12-20T04:25:58;7.53;;;5.70;;
8293;SDS011;4185;41.506;24.938;2023-12-20T04:28:24;9.37;;;5.90;;
8293;SDS011;4185;41.506;24.938;2023-12-20T04:30:51;7.77;;;6.30;;
8293;SDS011;4185;41.506;24.938;2023-12-20T04:33:18;11.20;;;6.73;;
8293;SDS011;4185;41.506;24.938;2023-12-20T04:35:45;9.83;;;7.03;;
8293;SDS011;4185;41.506;24.938;2023-12-20T04:38:12;7.23;;;5.50;;
8293;SDS011;4185;41.506;24.938;2023-12-20T04:40:40;12.13;;;6.00;;
8293;SDS011;4185;41.506;24.938;2023-12-20T04:43:06;7.47;;;4.97;;
8293;SDS011;4185;41.506;24.938;2023-12-20T04:45:33;6.97;;;4.70;;
8293;SDS011;4185;41.506;24.938;2023-12-20T04:48:00;6.60;;;5.27;;
8293;SDS011;4185;41.506;24.938;2023-12-20T04:50:27;8.80;;;5.67;;
8293;SDS011;4185;41.506;24.938;2023-12-20T04:52:54;12.37;;;6.20;;
8293;SDS011;4185;41.506;24.938;2023-12-20T04:55:21;29.77;;;14.00;;
8293;SDS011;4185;41.506;24.938;2023-12-20T04:57:49;28.57;;;14.67;;
8293;SDS011;4185;41.506;24.938;2023-12-20T05:00:16;32.27;;;15.53;;
8293;SDS011;4185;41.506;24.938;2023-12-20T05:02:43;17.57;;;11.77;;
8293;SDS011;4185;41.506;24.938;2023-12-20T05:05:10;18.37;;;11.50;;
8293;SDS011;4185;41.506;24.938;2023-12-20T05:07:37;25.23;;;18.00;;
8293;SDS011;4185;41.506;24.938;2023-12-20T05:10:04;30.23;;;15.10;;
8293;SDS011;4185;41.506;24.938;2023-12-20T05:12:33;17.53;;;10.30;;
8293;SDS011;4185;41.506;24.938;2023-12-20T05:15:01;18.53;;;12.90;;
8293;SDS011;4185;41.506;24.938;2023-12-20T05:17:28;11.27;;;6.70;;
8293;SDS011;4185;41.506;24.938;2023-12-20T05:19:55;9.87;;;6.17;;
8293;SDS011;4185;41.506;24.938;2023-12-20T05:22:22;15.37;;;9.77;;
8293;SDS011;4185;41.506;24.938;2023-12-20T05:24:48;15.57;;;9.50;;
8293;SDS011;4185;41.506;24.938;2023-12-20T05:27:15;15.93;;;9.07;;
8293;SDS011;4185;41.506;24.938;2023-12-20T05:29:42;19.87;;;11.97;;
8293;SDS011;4185;41.506;24.938;2023-12-20T05:32:10;26.27;;;14.63;;
8293;SDS011;4185;41.506;24.938;2023-12-20T05:34:37;29.73;;;15.20;;
8293;SDS011;4185;41.506;24.938;2023-12-20T05:37:04;31.47;;;17.57;;
8293;SDS011;4185;41.506;24.938;2023-12-20T05:39:30;38.77;;;15.73;;
8293;SDS011;4185;41.506;24.938;2023-12-20T05:41:57;32.17;;;14.67;;
8293;SDS011;4185;41.506;24.938;2023-12-20T05:44:24;39.23;;;17.50;;
8293;SDS011;4185;41.506;24.938;2023-12-20T05:46:51;61.90;;;26.77;;
8293;SDS011;4185;41.506;24.938;2023-12-20T05:49:19;53.90;;;26.63;;
8293;SDS011;4185;41.506;24.938;2023-12-20T05:51:47;48.67;;;22.47;;
8293;SDS011;4185;41.506;24.938;2023-12-20T05:54:13;51.13;;;25.33;;
8293;SDS011;4185;41.506;24.938;2023-12-20T05:56:40;26.50;;;14.67;;
8293;SDS011;4185;41.506;24.938;2023-12-20T05:59:07;28.37;;;16.20;;
8293;SDS011;4185;41.506;24.938;2023-12-20T06:01:34;49.33;;;24.57;;
8293;SDS011;4185;41.506;24.938;2023-12-20T06:04:01;60.33;;;28.90;;
8293;SDS011;4185;41.506;24.938;2023-12-20T06:06:29;63.87;;;31.67;;
8293;SDS011;4185;41.506;24.938;2023-12-20T06:08:56;54.37;;;28.50;;
8293;SDS011;4185;41.506;24.938;2023-12-20T06:11:23;46.87;;;26.43;;
8293;SDS011;4185;41.506;24.938;2023-12-20T06:13:50;34.40;;;19.73;;
8293;SDS011;4185;41.506;24.938;2023-12-20T06:16:18;36.00;;;20.00;;
8293;SDS011;4185;41.506;24.938;2023-12-20T06:18:45;25.90;;;15.03;;
8293;SDS011;4185;41.506;24.938;2023-12-20T06:21:12;23.67;;;12.53;;
8293;SDS011;4185;41.506;24.938;2023-12-20T06:23:40;26.53;;;12.80;;
8293;SDS011;4185;41.506;24.938;2023-12-20T06:26:07;22.23;;;12.07;;
8293;SDS011;4185;41.506;24.938;2023-12-20T06:28:34;21.93;;;11.93;;
8293;SDS011;4185;41.506;24.938;2023-12-20T06:31:01;24.03;;;13.00;;
8293;SDS011;4185;41.506;24.938;2023-12-20T06:33:28;27.23;;;16.37;;
8293;SDS011;4185;41.506;24.938;2023-12-20T06:35:56;48.60;;;23.07;;
8293;SDS011;4185;41.506;24.938;2023-12-20T06:38:23;51.50;;;27.00;;
8293;SDS011;4185;41.506;24.938;2023-12-20T06:40:51;70.80;;;34.73;;
8293;SDS011;4185;41.506;24.938;2023-12-20T06:43:17;90.90;;;41.97;;
8293;SDS011;4185;41.506;24.938;2023-12-20T06:45:44;35.57;;;19.50;;
8293;SDS011;4185;41.506;24.938;2023-12-20T06:48:11;14.70;;;9.80;;
8293;SDS011;4185;41.506;24.938;2023-12-20T06:50:39;19.83;;;10.70;;
8293;SDS011;4185;41.506;24.938;2023-12-20T06:53:06;34.03;;;18.30;;
8293;SDS011;4185;41.506;24.938;2023-12-20T06:55:33;14.07;;;8.80;;
8293;SDS011;4185;41.506;24.938;2023-12-20T06:58:02;12.10;;;8.10;;
8293;SDS011;4185;41.506;24.938;2023-12-20T07:00:29;18.47;;;10.33;;
8293;SDS011;4185;41.506;24.938;2023-12-20T07:02:56;20.50;;;12.70;;
8293;SDS011;4185;41.506;24.938;2023-12-20T07:05:23;18.43;;;12.23;;
8293;SDS011;4185;41.506;24.938;2023-12-20T07:07:49;11.57;;;9.03;;
8293;SDS011;4185;41.506;24.938;2023-12-20T07:10:16;11.30;;;7.70;;
8293;SDS011;4185;41.506;24.938;2023-12-20T07:12:43;18.10;;;11.33;;
8293;SDS011;4185;41.506;24.938;2023-12-20T07:15:11;20.27;;;11.77;;
8293;SDS011;4185;41.506;24.938;2023-12-20T07:17:38;25.23;;;14.57;;
8293;SDS011;4185;41.506;24.938;2023-12-20T07:20:05;26.33;;;16.00;;
8293;SDS011;4185;41.506;24.938;2023-12-20T07:22:35;29.60;;;16.20;;
8293;SDS011;4185;41.506;24.938;2023-12-20T07:25:02;39.73;;;25.13;;
8293;SDS011;4185;41.506;24.938;2023-12-20T07:27:30;27.13;;;19.03;;
8293;SDS011;4185;41.506;24.938;2023-12-20T07:29:56;24.80;;;14.37;;
8293;SDS011;4185;41.506;24.938;2023-12-20T07:32:25;22.80;;;14.40;;
8293;SDS011;4185;41.506;24.938;2023-12-20T07:34:52;16.23;;;9.40;;
8293;SDS011;4185;41.506;24.938;2023-12-20T07:37:19;14.30;;;7.97;;
8293;SDS011;4185;41.506;24.938;2023-12-20T07:39:46;15.70;;;10.13;;
8293;SDS011;4185;41.506;24.938;2023-12-20T07:42:13;12.50;;;7.93;;
8293;SDS011;4185;41.506;24.938;2023-12-20T07:44:40;11.23;;;8.10;;
8293;SDS011;4185;41.506;24.938;2023-12-20T07:47:07;28.10;;;13.00;;
8293;SDS011;4185;41.506;24.938;2023-12-20T07:49:35;59.50;;;20.03;;
8293;SDS011;4185;41.506;24.938;2023-12-20T07:52:02;85.47;;;33.50;;
8293;SDS011;4185;41.506;24.938;2023-12-20T07:54:28;32.40;;;17.70;;
8293;SDS011;4185;41.506;24.938;2023-12-20T07:56:55;23.80;;;15.73;;
8293;SDS011;4185;41.506;24.938;2023-12-20T07:59:23;25.80;;;15.00;;
8293;SDS011;4185;41.506;24.938;2023-12-20T08:01:50;19.23;;;12.80;;
8293;SDS011;4185;41.506;24.938;2023-12-20T08:04:17;19.67;;;11.77;;
8293;SDS011;4185;41.506;24.938;2023-12-20T08:06:45;32.90;;;19.60;;
8293;SDS011;4185;41.506;24.938;2023-12-20T08:09:12;50.03;;;25.10;;
8293;SDS011;4185;41.506;24.938;2023-12-20T08:11:38;60.17;;;28.43;;
8293;SDS011;4185;41.506;24.938;2023-12-20T08:14:05;52.87;;;28.83;;
8293;SDS011;4185;41.506;24.938;2023-12-20T08:16:32;12.63;;;8.70;;
8293;SDS011;4185;41.506;24.938;2023-12-20T08:18:58;15.83;;;10.50;;
8293;SDS011;4185;41.506;24.938;2023-12-20T08:21:25;33.97;;;19.53;;
8293;SDS011;4185;41.506;24.938;2023-12-20T08:23:54;27.10;;;18.00;;
8293;SDS011;4185;41.506;24.938;2023-12-20T08:26:20;27.70;;;18.23;;
8293;SDS011;4185;41.506;24.938;2023-12-20T08:28:49;57.77;;;34.43;;
8293;SDS011;4185;41.506;24.938;2023-12-20T08:31:16;54.77;;;29.10;;
8293;SDS011;4185;41.506;24.938;2023-12-20T08:33:44;60.07;;;36.93;;
8293;SDS011;4185;41.506;24.938;2023-12-20T08:36:12;65.50;;;39.37;;
8293;SDS011;4185;41.506;24.938;2023-12-20T08:38:39;70.77;;;41.07;;
8293;SDS011;4185;41.506;24.938;2023-12-20T08:41:07;74.83;;;41.90;;
8293;SDS011;4185;41.506;24.938;2023-12-20T08:43:34;54.87;;;34.27;;
8293;SDS011;4185;41.506;24.938;2023-12-20T08:46:01;67.37;;;41.43;;
8293;SDS011;4185;41.506;24.938;2023-12-20T08:48:28;66.27;;;37.63;;
8293;SDS011;4185;41.506;24.938;2023-12-20T08:50:55;87.50;;;43.77;;
8293;SDS011;4185;41.506;24.938;2023-12-20T08:53:22;29.47;;;17.30;;
8293;SDS011;4185;41.506;24.938;2023-12-20T08:55:49;16.97;;;10.93;;
8293;SDS011;4185;41.506;24.938;2023-12-20T08:58:17;12.87;;;8.80;;
8293;SDS011;4185;41.506;24.938;2023-12-20T09:00:44;34.87;;;22.00;;
8293;SDS011;4185;41.506;24.938;2023-12-20T09:03:11;43.80;;;25.93;;
8293;SDS011;4185;41.506;24.938;2023-12-20T09:05:38;66.23;;;39.63;;
8293;SDS011;4185;41.506;24.938;2023-12-20T09:08:05;71.00;;;41.33;;
8293;SDS011;4185;41.506;24.938;2023-12-20T09:10:33;69.80;;;39.60;;
8293;SDS011;4185;41.506;24.938;2023-12-20T09:12:59;62.93;;;37.73;;
8293;SDS011;4185;41.506;24.938;2023-12-20T09:15:27;75.90;;;44.70;;
8293;SDS011;4185;41.506;24.938;2023-12-20T09:17:55;70.33;;;42.37;;
8293;SDS011;4185;41.506;24.938;2023-12-20T09:20:22;70.63;;;40.43;;
8293;SDS011;4185;41.506;24.938;2023-12-20T09:22:49;64.83;;;36.93;;
8293;SDS011;4185;41.506;24.938;2023-12-20T09:25:16;49.47;;;31.37;;
8293;SDS011;4185;41.506;24.938;2023-12-20T09:27:43;52.63;;;35.03;;
8293;SDS011;4185;41.506;24.938;2023-12-20T09:30:10;38.90;;;26.13;;
8293;SDS011;4185;41.506;24.938;2023-12-20T09:32:38;38.73;;;25.27;;
8293;SDS011;4185;41.506;24.938;2023-12-20T09:35:05;36.07;;;22.63;;
8293;SDS011;4185;41.506;24.938;2023-12-20T09:37:34;24.23;;;16.60;;
8293;SDS011;4185;41.506;24.938;2023-12-20T09:40:01;21.23;;;14.20;;
8293;SDS011;4185;41.506;24.938;2023-12-20T09:42:29;22.77;;;14.90;;
8293;SDS011;4185;41.506;24.938;2023-12-20T09:45:05;38.43;;;23.90;;
8293;SDS011;4185;41.506;24.938;2023-12-20T09:47:34;22.80;;;16.07;;
8293;SDS011;4185;41.506;24.938;2023-12-20T09:50:03;20.47;;;14.50;;
8293;SDS011;4185;41.506;24.938;2023-12-20T09:52:31;17.57;;;12.47;;
8293;SDS011;4185;41.506;24.938;2023-12-20T09:54:59;17.63;;;11.83;;
8293;SDS011;4185;41.506;24.938;2023-12-20T09:57:29;51.03;;;29.50;;
8293;SDS011;4185;41.506;24.938;2023-12-20T09:59:56;38.27;;;25.50;;
8293;SDS011;4185;41.506;24.938;2023-12-20T10:02:23;35.73;;;21.53;;
8293;SDS011;4185;41.506;24.938;2023-12-20T10:04:52;38.43;;;25.60;;
8293;SDS011;4185;41.506;24.938;2023-12-20T10:07:22;28.67;;;20.27;;
8293;SDS011;4185;41.506;24.938;2023-12-20T10:09:48;41.17;;;25.30;;
8293;SDS011;4185;41.506;24.938;2023-12-20T10:12:17;21.47;;;13.80;;
8293;SDS011;4185;41.506;24.938;2023-12-20T10:14:44;24.83;;;13.67;;
8293;SDS011;4185;41.506;24.938;2023-12-20T10:17:10;24.10;;;15.77;;
8293;SDS011;4185;41.506;24.938;2023-12-20T10:19:37;21.57;;;13.90;;
8293;SDS011;4185;41.506;24.938;2023-12-20T10:22:04;28.57;;;18.83;;
8293;SDS011;4185;41.506;24.938;2023-12-20T10:24:32;32.27;;;18.77;;
8293;SDS011;4185;41.506;24.938;2023-12-20T10:27:02;41.63;;;23.37;;
8293;SDS011;4185;41.506;24.938;2023-12-20T10:29:33;29.70;;;17.60;;
8293;SDS011;4185;41.506;24.938;2023-12-20T10:32:02;28.60;;;16.20;;
8293;SDS011;4185;41.506;24.938;2023-12-20T10:34:57;19.60;;;13.50;;
8293;SDS011;4185;41.506;24.938;2023-12-20T10:37:24;24.40;;;15.50;;
8293;SDS011;4185;41.506;24.938;2023-12-20T10:39:52;34.43;;;21.30;;
8293;SDS011;4185;41.506;24.938;2023-12-20T10:42:22;27.07;;;17.40;;
8293;SDS011;4185;41.506;24.938;2023-12-20T10:44:52;24.47;;;16.83;;
8293;SDS011;4185;41.506;24.938;2023-12-20T10:47:19;23.43;;;16.63;;
8293;SDS011;4185;41.506;24.938;2023-12-20T10:49:46;36.93;;;24.43;;
8293;SDS011;4185;41.506;24.938;2023-12-20T10:52:14;29.67;;;18.87;;
8293;SDS011;4185;41.506;24.938;2023-12-20T10:54:43;46.23;;;29.03;;
8293;SDS011;4185;41.506;24.938;2023-12-20T10:57:11;34.40;;;20.47;;
8293;SDS011;4185;41.506;24.938;2023-12-20T10:59:38;29.40;;;17.70;;
8293;SDS011;4185;41.506;24.938;2023-12-20T11:02:06;47.57;;;28.17;;
8293;SDS011;4185;41.506;24.938;2023-12-20T11:04:36;43.00;;;27.07;;
8293;SDS011;4185;41.506;24.938;2023-12-20T11:07:08;43.27;;;28.37;;
8293;SDS011;4185;41.506;24.938;2023-12-20T11:09:47;22.70;;;14.87;;
8293;SDS011;4185;41.506;24.938;2023-12-20T11:12:22;30.20;;;18.33;;
8293;SDS011;4185;41.506;24.938;2023-12-20T11:14:57;18.37;;;12.03;;
8293;SDS011;4185;41.506;24.938;2023-12-20T11:17:29;30.77;;;19.30;;
8293;SDS011;4185;41.506;24.938;2023-12-20T11:22:51;33.00;;;19.73;;
8293;SDS011;4185;41.506;24.938;2023-12-20T11:25:19;35.90;;;22.40;;
8293;SDS011;4185;41.506;24.938;2023-12-20T11:30:42;29.67;;;18.33;;
8293;SDS011;4185;41.506;24.938;2023-12-20T11:33:13;33.43;;;20.67;;
8293;SDS011;4185;41.506;24.938;2023-12-20T11:35:40;30.50;;;17.97;;
8293;SDS011;4185;41.506;24.938;2023-12-20T11:38:08;34.93;;;22.80;;
8293;SDS011;4185;41.506;24.938;2023-12-20T11:40:36;31.70;;;18.50;;
8293;SDS011;4185;41.506;24.938;2023-12-20T11:43:03;32.60;;;19.37;;
8293;SDS011;4185;41.506;24.938;2023-12-20T11:45:31;85.87;;;42.40;;
8293;SDS011;4185;41.506;24.938;2023-12-20T11:47:57;64.07;;;34.70;;
8293;SDS011;4185;41.506;24.938;2023-12-20T11:50:24;68.83;;;37.73;;
8293;SDS011;4185;41.506;24.938;2023-12-20T11:52:52;43.37;;;26.13;;
8293;SDS011;4185;41.506;24.938;2023-12-20T11:55:21;81.80;;;43.40;;
8293;SDS011;4185;41.506;24.938;2023-12-20T11:57:49;46.27;;;27.50;;
8293;SDS011;4185;41.506;24.938;2023-12-20T12:00:17;50.07;;;27.83;;
8293;SDS011;4185;41.506;24.938;2023-12-20T12:02:50;48.27;;;26.90;;
8293;SDS011;4185;41.506;24.938;2023-12-20T12:05:21;51.20;;;29.43;;
8293;SDS011;4185;41.506;24.938;2023-12-20T12:07:48;29.53;;;17.70;;
8293;SDS011;4185;41.506;24.938;2023-12-20T12:10:15;37.03;;;24.10;;
8293;SDS011;4185;41.506;24.938;2023-12-20T12:12:43;37.60;;;23.67;;
8293;SDS011;4185;41.506;24.938;2023-12-20T12:15:10;39.30;;;22.73;;
8293;SDS011;4185;41.506;24.938;2023-12-20T12:17:37;34.90;;;19.87;;
8293;SDS011;4185;41.506;24.938;2023-12-20T12:20:05;29.83;;;18.27;;
8293;SDS011;4185;41.506;24.938;2023-12-20T12:22:33;26.33;;;17.33;;
8293;SDS011;4185;41.506;24.938;2023-12-20T12:25:09;42.53;;;25.50;;
8293;SDS011;4185;41.506;24.938;2023-12-20T12:27:36;30.20;;;19.87;;
8293;SDS011;4185;41.506;24.938;2023-12-20T12:30:05;42.17;;;25.50;;
8293;SDS011;4185;41.506;24.938;2023-12-20T12:32:33;21.40;;;14.83;;
8293;SDS011;4185;41.506;24.938;2023-12-20T12:35:00;28.23;;;19.23;;
8293;SDS011;4185;41.506;24.938;2023-12-20T12:37:29;25.87;;;16.43;;
8293;SDS011;4185;41.506;24.938;2023-12-20T12:39:56;29.00;;;17.60;;
8293;SDS011;4185;41.506;24.938;2023-12-20T12:42:23;28.97;;;17.77;;
8293;SDS011;4185;41.506;24.938;2023-12-20T12:44:53;29.17;;;18.20;;
8293;SDS011;4185;41.506;24.938;2023-12-20T12:47:22;23.13;;;16.03;;
8293;SDS011;4185;41.506;24.938;2023-12-20T12:49:49;25.37;;;14.97;;
8293;SDS011;4185;41.506;24.938;2023-12-20T12:52:18;20.27;;;13.63;;
8293;SDS011;4185;41.506;24.938;2023-12-20T12:54:45;17.37;;;11.90;;
8293;SDS011;4185;41.506;24.938;2023-12-20T12:57:13;15.23;;;10.07;;
8293;SDS011;4185;41.506;24.938;2023-12-20T12:59:40;14.43;;;8.97;;
8293;SDS011;4185;41.506;24.938;2023-12-20T13:02:07;20.23;;;13.07;;
8293;SDS011;4185;41.506;24.938;2023-12-20T13:04:35;24.60;;;14.40;;
8293;SDS011;4185;41.506;24.938;2023-12-20T13:07:02;24.93;;;13.63;;
8293;SDS011;4185;41.506;24.938;2023-12-20T13:09:29;29.50;;;15.73;;
8293;SDS011;4185;41.506;24.938;2023-12-20T13:11:56;34.50;;;18.43;;
8293;SDS011;4185;41.506;24.938;2023-12-20T13:14:24;57.60;;;26.63;;
8293;SDS011;4185;41.506;24.938;2023-12-20T13:16:50;50.57;;;25.93;;
8293;SDS011;4185;41.506;24.938;2023-12-20T13:19:17;27.87;;;14.70;;
8293;SDS011;4185;41.506;24.938;2023-12-20T13:21:45;16.77;;;10.37;;
8293;SDS011;4185;41.506;24.938;2023-12-20T13:24:12;24.27;;;15.40;;
8293;SDS011;4185;41.506;24.938;2023-12-20T13:26:39;20.40;;;13.70;;
8293;SDS011;4185;41.506;24.938;2023-12-20T13:29:06;27.57;;;15.77;;
8293;SDS011;4185;41.506;24.938;2023-12-20T13:31:33;27.53;;;16.30;;
8293;SDS011;4185;41.506;24.938;2023-12-20T13:34:01;19.60;;;12.90;;
8293;SDS011;4185;41.506;24.938;2023-12-20T13:36:28;22.20;;;14.70;;
8293;SDS011;4185;41.506;24.938;2023-12-20T13:38:56;30.73;;;16.93;;
8293;SDS011;4185;41.506;24.938;2023-12-20T13:41:23;30.77;;;16.77;;
8293;SDS011;4185;41.506;24.938;2023-12-20T13:43:50;28.87;;;17.53;;
8293;SDS011;4185;41.506;24.938;2023-12-20T13:46:17;26.93;;;15.47;;
8293;SDS011;4185;41.506;24.938;2023-12-20T13:48:43;24.50;;;15.13;;
8293;SDS011;4185;41.506;24.938;2023-12-20T13:51:10;30.13;;;18.07;;
8293;SDS011;4185;41.506;24.938;2023-12-20T13:53:37;22.23;;;12.13;;
8293;SDS011;4185;41.506;24.938;2023-12-20T13:56:06;56.93;;;29.13;;
8293;SDS011;4185;41.506;24.938;2023-12-20T13:58:33;23.93;;;15.00;;
8293;SDS011;4185;41.506;24.938;2023-12-20T14:01:00;38.00;;;20.17;;
8293;SDS011;4185;41.506;24.938;2023-12-20T14:03:27;30.63;;;16.43;;
8293;SDS011;4185;41.506;24.938;2023-12-20T14:05:53;25.63;;;13.13;;
8293;SDS011;4185;41.506;24.938;2023-12-20T14:08:21;25.87;;;17.20;;
8293;SDS011;4185;41.506;24.938;2023-12-20T14:10:49;34.90;;;17.87;;
8293;SDS011;4185;41.506;24.938;2023-12-20T14:13:17;29.20;;;14.23;;
8293;SDS011;4185;41.506;24.938;2023-12-20T14:15:44;23.77;;;13.53;;
8293;SDS011;4185;41.506;24.938;2023-12-20T14:18:12;20.47;;;12.90;;
8293;SDS011;4185;41.506;24.938;2023-12-20T14:20:40;27.87;;;15.10;;
8293;SDS011;4185;41.506;24.938;2023-12-20T14:23:07;43.87;;;22.47;;
8293;SDS011;4185;41.506;24.938;2023-12-20T14:25:34;52.80;;;27.30;;
8293;SDS011;4185;41.506;24.938;2023-12-20T14:28:02;40.77;;;22.17;;
8293;SDS011;4185;41.506;24.938;2023-12-20T14:30:31;48.00;;;27.13;;
8293;SDS011;4185;41.506;24.938;2023-12-20T14:32:58;28.67;;;17.77;;
8293;SDS011;4185;41.506;24.938;2023-12-20T14:35:25;40.67;;;22.93;;
8293;SDS011;4185;41.506;24.938;2023-12-20T14:37:52;27.67;;;15.33;;
8293;SDS011;4185;41.506;24.938;2023-12-20T14:40:19;24.87;;;13.63;;
8293;SDS011;4185;41.506;24.938;2023-12-20T14:42:46;16.03;;;8.57;;
8293;SDS011;4185;41.506;24.938;2023-12-20T14:45:13;19.63;;;11.57;;
8293;SDS011;4185;41.506;24.938;2023-12-20T14:47:42;26.47;;;15.93;;
8293;SDS011;4185;41.506;24.938;2023-12-20T14:50:09;20.87;;;12.97;;